Croydon, United Kingdom
Current Conditions -  °F | °C
As of 1:50 PM on Saturday 25 Oct 2014 (Local Time) from EGKB Reporting Station
Broken Clouds Broken Clouds  
Wind Chill: 13°   Ceiling: 4500
Heat Index: 13°   Visibility: 6mi
Dew Point:   Wind: 12mph
Humidity: 63%   Direction: 230°SW
Pressure: 30.09"   Gusts: NA
Location:  51.37°N, 0.1°W
Report Text: EGKB 251250Z 23010KT 190V250 9999 BKN045 13/06 Q1019
Loading
Personal Weather Stations






























Interactive Weather Map
Tropical Storm Tracking
New forecast layout! Learn more

10-Day Weather Forecast

Advertisements
Track Severe Weather on mobile